sensor_id;sensor_type;location;lat;lon;timestamp;P1;durP1;ratioP1;P2;durP2;ratioP2
8831;SDS011;4452;50.756;4.472;2022-07-23T00:01:18;33.85;;;21.73;;
8831;SDS011;4452;50.756;4.472;2022-07-23T00:03:45;32.80;;;21.13;;
8831;SDS011;4452;50.756;4.472;2022-07-23T00:06:10;34.08;;;21.65;;
8831;SDS011;4452;50.756;4.472;2022-07-23T00:08:36;28.70;;;18.55;;
8831;SDS011;4452;50.756;4.472;2022-07-23T00:11:02;35.63;;;19.50;;
8831;SDS011;4452;50.756;4.472;2022-07-23T00:13:27;31.85;;;20.65;;
8831;SDS011;4452;50.756;4.472;2022-07-23T00:15:53;32.50;;;19.65;;
8831;SDS011;4452;50.756;4.472;2022-07-23T00:18:20;35.90;;;19.80;;
8831;SDS011;4452;50.756;4.472;2022-07-23T00:20:45;35.50;;;20.67;;
8831;SDS011;4452;50.756;4.472;2022-07-23T00:23:11;33.85;;;20.52;;
8831;SDS011;4452;50.756;4.472;2022-07-23T00:25:37;38.35;;;21.73;;
8831;SDS011;4452;50.756;4.472;2022-07-23T00:28:03;44.05;;;21.88;;
8831;SDS011;4452;50.756;4.472;2022-07-23T00:30:29;39.17;;;21.95;;
8831;SDS011;4452;50.756;4.472;2022-07-23T00:32:56;39.60;;;22.13;;
8831;SDS011;4452;50.756;4.472;2022-07-23T00:35:27;41.83;;;23.02;;
8831;SDS011;4452;50.756;4.472;2022-07-23T00:37:55;36.83;;;23.27;;
8831;SDS011;4452;50.756;4.472;2022-07-23T00:40:21;41.22;;;22.42;;
8831;SDS011;4452;50.756;4.472;2022-07-23T00:42:47;37.80;;;22.27;;
8831;SDS011;4452;50.756;4.472;2022-07-23T00:45:13;34.72;;;21.90;;
8831;SDS011;4452;50.756;4.472;2022-07-23T00:47:39;36.80;;;21.10;;
8831;SDS011;4452;50.756;4.472;2022-07-23T00:50:06;37.70;;;22.42;;
8831;SDS011;4452;50.756;4.472;2022-07-23T00:52:33;39.25;;;22.13;;
8831;SDS011;4452;50.756;4.472;2022-07-23T00:55:00;39.83;;;23.17;;
8831;SDS011;4452;50.756;4.472;2022-07-23T00:57:27;43.78;;;23.83;;
8831;SDS011;4452;50.756;4.472;2022-07-23T00:59:52;46.22;;;25.38;;
8831;SDS011;4452;50.756;4.472;2022-07-23T01:02:18;54.40;;;28.88;;
8831;SDS011;4452;50.756;4.472;2022-07-23T01:04:44;42.22;;;24.42;;
8831;SDS011;4452;50.756;4.472;2022-07-23T01:07:10;46.20;;;27.65;;
8831;SDS011;4452;50.756;4.472;2022-07-23T01:09:36;49.10;;;28.42;;
8831;SDS011;4452;50.756;4.472;2022-07-23T01:12:03;49.00;;;28.65;;
8831;SDS011;4452;50.756;4.472;2022-07-23T01:14:29;49.75;;;25.73;;
8831;SDS011;4452;50.756;4.472;2022-07-23T01:16:54;49.05;;;25.42;;
8831;SDS011;4452;50.756;4.472;2022-07-23T01:19:20;48.90;;;27.08;;
8831;SDS011;4452;50.756;4.472;2022-07-23T01:21:47;46.88;;;27.25;;
8831;SDS011;4452;50.756;4.472;2022-07-23T01:24:15;48.63;;;23.70;;
8831;SDS011;4452;50.756;4.472;2022-07-23T01:26:44;44.15;;;24.20;;
8831;SDS011;4452;50.756;4.472;2022-07-23T01:29:10;45.22;;;24.48;;
8831;SDS011;4452;50.756;4.472;2022-07-23T01:31:36;43.70;;;24.45;;
8831;SDS011;4452;50.756;4.472;2022-07-23T01:34:02;45.35;;;24.00;;
8831;SDS011;4452;50.756;4.472;2022-07-23T01:36:29;43.13;;;25.33;;
8831;SDS011;4452;50.756;4.472;2022-07-23T01:38:55;60.75;;;33.08;;
8831;SDS011;4452;50.756;4.472;2022-07-23T01:41:20;52.05;;;27.50;;
8831;SDS011;4452;50.756;4.472;2022-07-23T01:43:46;47.17;;;26.52;;
8831;SDS011;4452;50.756;4.472;2022-07-23T01:46:12;46.88;;;25.02;;
8831;SDS011;4452;50.756;4.472;2022-07-23T01:48:38;48.15;;;25.98;;
8831;SDS011;4452;50.756;4.472;2022-07-23T01:51:03;44.08;;;25.17;;
8831;SDS011;4452;50.756;4.472;2022-07-23T01:53:29;51.45;;;26.05;;
8831;SDS011;4452;50.756;4.472;2022-07-23T01:55:58;45.05;;;25.60;;
8831;SDS011;4452;50.756;4.472;2022-07-23T01:58:24;49.38;;;26.50;;
8831;SDS011;4452;50.756;4.472;2022-07-23T02:00:51;50.92;;;25.52;;
8831;SDS011;4452;50.756;4.472;2022-07-23T02:03:17;48.53;;;24.45;;
8831;SDS011;4452;50.756;4.472;2022-07-23T02:05:42;51.40;;;24.58;;
8831;SDS011;4452;50.756;4.472;2022-07-23T02:08:08;50.83;;;25.83;;
8831;SDS011;4452;50.756;4.472;2022-07-23T02:10:34;42.92;;;23.70;;
8831;SDS011;4452;50.756;4.472;2022-07-23T02:12:59;40.45;;;23.00;;
8831;SDS011;4452;50.756;4.472;2022-07-23T02:15:25;50.80;;;24.90;;
8831;SDS011;4452;50.756;4.472;2022-07-23T02:17:51;40.63;;;23.05;;
8831;SDS011;4452;50.756;4.472;2022-07-23T02:20:17;41.67;;;24.17;;
8831;SDS011;4452;50.756;4.472;2022-07-23T02:22:43;46.88;;;25.08;;
8831;SDS011;4452;50.756;4.472;2022-07-23T02:25:09;46.22;;;26.10;;
8831;SDS011;4452;50.756;4.472;2022-07-23T02:27:35;46.03;;;24.67;;
8831;SDS011;4452;50.756;4.472;2022-07-23T02:30:01;41.13;;;23.08;;
8831;SDS011;4452;50.756;4.472;2022-07-23T02:32:28;48.25;;;24.88;;
8831;SDS011;4452;50.756;4.472;2022-07-23T02:34:53;46.38;;;24.35;;
8831;SDS011;4452;50.756;4.472;2022-07-23T02:37:19;50.83;;;24.52;;
8831;SDS011;4452;50.756;4.472;2022-07-23T02:39:45;47.30;;;25.60;;
8831;SDS011;4452;50.756;4.472;2022-07-23T02:42:10;52.40;;;25.40;;
8831;SDS011;4452;50.756;4.472;2022-07-23T02:44:38;52.30;;;25.77;;
8831;SDS011;4452;50.756;4.472;2022-07-23T02:47:03;49.20;;;25.10;;
8831;SDS011;4452;50.756;4.472;2022-07-23T02:49:29;52.42;;;25.02;;
8831;SDS011;4452;50.756;4.472;2022-07-23T02:51:55;46.55;;;24.75;;
8831;SDS011;4452;50.756;4.472;2022-07-23T02:54:20;56.35;;;28.58;;
8831;SDS011;4452;50.756;4.472;2022-07-23T02:56:46;44.85;;;23.00;;
8831;SDS011;4452;50.756;4.472;2022-07-23T02:59:12;43.70;;;24.95;;
8831;SDS011;4452;50.756;4.472;2022-07-23T03:01:37;42.85;;;25.25;;
8831;SDS011;4452;50.756;4.472;2022-07-23T03:04:03;51.25;;;25.05;;
8831;SDS011;4452;50.756;4.472;2022-07-23T03:06:29;54.58;;;27.40;;
8831;SDS011;4452;50.756;4.472;2022-07-23T03:08:54;48.03;;;25.38;;
8831;SDS011;4452;50.756;4.472;2022-07-23T03:11:20;44.53;;;23.90;;
8831;SDS011;4452;50.756;4.472;2022-07-23T03:13:46;50.72;;;25.55;;
8831;SDS011;4452;50.756;4.472;2022-07-23T03:16:11;48.33;;;26.67;;
8831;SDS011;4452;50.756;4.472;2022-07-23T03:18:37;46.75;;;26.20;;
8831;SDS011;4452;50.756;4.472;2022-07-23T03:21:03;52.38;;;26.55;;
8831;SDS011;4452;50.756;4.472;2022-07-23T03:23:28;50.10;;;26.10;;
8831;SDS011;4452;50.756;4.472;2022-07-23T03:25:54;55.92;;;27.02;;
8831;SDS011;4452;50.756;4.472;2022-07-23T03:28:20;54.35;;;26.38;;
8831;SDS011;4452;50.756;4.472;2022-07-23T03:30:46;57.55;;;26.60;;
8831;SDS011;4452;50.756;4.472;2022-07-23T03:33:12;55.85;;;26.65;;
8831;SDS011;4452;50.756;4.472;2022-07-23T03:35:39;56.78;;;26.65;;
8831;SDS011;4452;50.756;4.472;2022-07-23T03:38:05;66.05;;;27.63;;
8831;SDS011;4452;50.756;4.472;2022-07-23T03:40:31;58.63;;;27.65;;
8831;SDS011;4452;50.756;4.472;2022-07-23T03:42:56;57.25;;;28.02;;
8831;SDS011;4452;50.756;4.472;2022-07-23T03:45:22;55.22;;;27.13;;
8831;SDS011;4452;50.756;4.472;2022-07-23T03:47:48;52.90;;;27.33;;
8831;SDS011;4452;50.756;4.472;2022-07-23T03:50:13;57.00;;;28.00;;
8831;SDS011;4452;50.756;4.472;2022-07-23T03:52:39;58.92;;;26.60;;
8831;SDS011;4452;50.756;4.472;2022-07-23T03:55:05;58.58;;;28.48;;
8831;SDS011;4452;50.756;4.472;2022-07-23T03:57:31;58.60;;;27.20;;
8831;SDS011;4452;50.756;4.472;2022-07-23T03:59:57;66.05;;;28.15;;
8831;SDS011;4452;50.756;4.472;2022-07-23T04:02:24;63.08;;;28.30;;
8831;SDS011;4452;50.756;4.472;2022-07-23T04:04:50;60.20;;;27.75;;
8831;SDS011;4452;50.756;4.472;2022-07-23T04:07:16;52.65;;;26.50;;
8831;SDS011;4452;50.756;4.472;2022-07-23T04:09:43;55.83;;;25.83;;
8831;SDS011;4452;50.756;4.472;2022-07-23T04:12:09;55.95;;;27.45;;
8831;SDS011;4452;50.756;4.472;2022-07-23T04:14:35;51.83;;;26.55;;
8831;SDS011;4452;50.756;4.472;2022-07-23T04:17:01;55.92;;;27.10;;
8831;SDS011;4452;50.756;4.472;2022-07-23T04:19:27;52.72;;;25.13;;
8831;SDS011;4452;50.756;4.472;2022-07-23T04:21:53;53.90;;;25.33;;
8831;SDS011;4452;50.756;4.472;2022-07-23T04:24:18;47.30;;;25.00;;
8831;SDS011;4452;50.756;4.472;2022-07-23T04:26:44;49.42;;;24.17;;
8831;SDS011;4452;50.756;4.472;2022-07-23T04:29:10;44.90;;;24.00;;
8831;SDS011;4452;50.756;4.472;2022-07-23T04:31:36;42.70;;;23.42;;
8831;SDS011;4452;50.756;4.472;2022-07-23T04:34:02;44.08;;;22.48;;
8831;SDS011;4452;50.756;4.472;2022-07-23T04:36:27;47.92;;;23.20;;
8831;SDS011;4452;50.756;4.472;2022-07-23T04:38:53;43.55;;;22.73;;
8831;SDS011;4452;50.756;4.472;2022-07-23T04:41:19;42.28;;;23.15;;
8831;SDS011;4452;50.756;4.472;2022-07-23T04:43:45;45.35;;;23.70;;
8831;SDS011;4452;50.756;4.472;2022-07-23T04:46:11;50.80;;;24.33;;
8831;SDS011;4452;50.756;4.472;2022-07-23T04:48:37;44.25;;;23.45;;
8831;SDS011;4452;50.756;4.472;2022-07-23T04:51:03;46.78;;;24.30;;
8831;SDS011;4452;50.756;4.472;2022-07-23T04:53:29;47.97;;;25.02;;
8831;SDS011;4452;50.756;4.472;2022-07-23T04:55:54;50.92;;;25.17;;
8831;SDS011;4452;50.756;4.472;2022-07-23T04:58:20;46.53;;;24.25;;
8831;SDS011;4452;50.756;4.472;2022-07-23T05:00:46;45.25;;;24.73;;
8831;SDS011;4452;50.756;4.472;2022-07-23T05:03:12;46.60;;;24.75;;
8831;SDS011;4452;50.756;4.472;2022-07-23T05:05:38;44.72;;;24.20;;
8831;SDS011;4452;50.756;4.472;2022-07-23T05:08:04;48.55;;;24.92;;
8831;SDS011;4452;50.756;4.472;2022-07-23T05:10:30;44.85;;;24.25;;
8831;SDS011;4452;50.756;4.472;2022-07-23T05:12:55;42.30;;;24.38;;
8831;SDS011;4452;50.756;4.472;2022-07-23T05:15:21;39.10;;;23.50;;
8831;SDS011;4452;50.756;4.472;2022-07-23T05:17:47;41.42;;;22.98;;
8831;SDS011;4452;50.756;4.472;2022-07-23T05:20:12;42.63;;;22.50;;
8831;SDS011;4452;50.756;4.472;2022-07-23T05:22:38;34.30;;;20.98;;
8831;SDS011;4452;50.756;4.472;2022-07-23T05:25:04;35.03;;;20.45;;
8831;SDS011;4452;50.756;4.472;2022-07-23T05:27:30;35.35;;;19.77;;
8831;SDS011;4452;50.756;4.472;2022-07-23T05:29:56;34.03;;;20.77;;
8831;SDS011;4452;50.756;4.472;2022-07-23T05:32:22;32.33;;;20.40;;
8831;SDS011;4452;50.756;4.472;2022-07-23T05:34:48;34.17;;;21.02;;
8831;SDS011;4452;50.756;4.472;2022-07-23T05:37:13;33.72;;;19.63;;
8831;SDS011;4452;50.756;4.472;2022-07-23T05:39:39;34.65;;;20.65;;
8831;SDS011;4452;50.756;4.472;2022-07-23T05:42:05;35.80;;;20.60;;
8831;SDS011;4452;50.756;4.472;2022-07-23T05:44:30;40.20;;;20.63;;
8831;SDS011;4452;50.756;4.472;2022-07-23T05:46:56;33.75;;;19.83;;
8831;SDS011;4452;50.756;4.472;2022-07-23T05:49:22;36.53;;;19.63;;
8831;SDS011;4452;50.756;4.472;2022-07-23T05:51:48;36.28;;;19.63;;
8831;SDS011;4452;50.756;4.472;2022-07-23T05:54:13;34.47;;;21.00;;
8831;SDS011;4452;50.756;4.472;2022-07-23T05:56:39;36.83;;;20.80;;
8831;SDS011;4452;50.756;4.472;2022-07-23T05:59:04;37.42;;;21.08;;
8831;SDS011;4452;50.756;4.472;2022-07-23T06:01:31;38.30;;;21.33;;
8831;SDS011;4452;50.756;4.472;2022-07-23T06:03:56;33.60;;;20.70;;
8831;SDS011;4452;50.756;4.472;2022-07-23T06:06:22;33.30;;;21.58;;
8831;SDS011;4452;50.756;4.472;2022-07-23T06:08:48;38.20;;;21.48;;
8831;SDS011;4452;50.756;4.472;2022-07-23T06:11:15;36.17;;;20.70;;
8831;SDS011;4452;50.756;4.472;2022-07-23T06:13:41;33.42;;;19.75;;
8831;SDS011;4452;50.756;4.472;2022-07-23T06:16:06;32.88;;;19.58;;
8831;SDS011;4452;50.756;4.472;2022-07-23T06:18:32;29.15;;;18.55;;
8831;SDS011;4452;50.756;4.472;2022-07-23T06:20:58;33.05;;;18.88;;
8831;SDS011;4452;50.756;4.472;2022-07-23T06:23:23;35.33;;;18.20;;
8831;SDS011;4452;50.756;4.472;2022-07-23T06:25:49;25.13;;;16.63;;
8831;SDS011;4452;50.756;4.472;2022-07-23T06:28:15;24.75;;;17.05;;
8831;SDS011;4452;50.756;4.472;2022-07-23T06:30:40;25.25;;;16.13;;
8831;SDS011;4452;50.756;4.472;2022-07-23T06:33:06;26.02;;;15.18;;
8831;SDS011;4452;50.756;4.472;2022-07-23T06:35:32;25.45;;;15.88;;
8831;SDS011;4452;50.756;4.472;2022-07-23T06:37:58;26.67;;;15.68;;
8831;SDS011;4452;50.756;4.472;2022-07-23T06:40:24;23.73;;;15.23;;
8831;SDS011;4452;50.756;4.472;2022-07-23T06:42:50;25.55;;;15.48;;
8831;SDS011;4452;50.756;4.472;2022-07-23T06:45:16;21.90;;;13.75;;
8831;SDS011;4452;50.756;4.472;2022-07-23T06:47:42;20.95;;;14.32;;
8831;SDS011;4452;50.756;4.472;2022-07-23T06:50:08;27.73;;;13.98;;
8831;SDS011;4452;50.756;4.472;2022-07-23T06:52:34;18.60;;;13.82;;
8831;SDS011;4452;50.756;4.472;2022-07-23T06:54:59;20.75;;;13.55;;
8831;SDS011;4452;50.756;4.472;2022-07-23T06:57:25;23.73;;;13.50;;
8831;SDS011;4452;50.756;4.472;2022-07-23T06:59:51;20.38;;;12.98;;
8831;SDS011;4452;50.756;4.472;2022-07-23T07:02:17;17.95;;;13.73;;
8831;SDS011;4452;50.756;4.472;2022-07-23T07:04:43;22.55;;;14.23;;
8831;SDS011;4452;50.756;4.472;2022-07-23T07:07:09;18.48;;;12.93;;
8831;SDS011;4452;50.756;4.472;2022-07-23T07:09:34;20.90;;;14.27;;
8831;SDS011;4452;50.756;4.472;2022-07-23T07:12:00;20.63;;;13.13;;
8831;SDS011;4452;50.756;4.472;2022-07-23T07:14:26;18.05;;;12.55;;
8831;SDS011;4452;50.756;4.472;2022-07-23T07:16:52;21.67;;;13.32;;
8831;SDS011;4452;50.756;4.472;2022-07-23T07:19:17;20.15;;;13.27;;
8831;SDS011;4452;50.756;4.472;2022-07-23T07:21:43;22.25;;;13.52;;
8831;SDS011;4452;50.756;4.472;2022-07-23T07:24:08;19.85;;;13.07;;
8831;SDS011;4452;50.756;4.472;2022-07-23T07:26:34;21.45;;;13.95;;
8831;SDS011;4452;50.756;4.472;2022-07-23T07:29:00;24.35;;;14.38;;
8831;SDS011;4452;50.756;4.472;2022-07-23T07:31:25;23.15;;;13.95;;
8831;SDS011;4452;50.756;4.472;2022-07-23T07:33:51;24.88;;;13.80;;
8831;SDS011;4452;50.756;4.472;2022-07-23T07:36:17;19.58;;;14.05;;
8831;SDS011;4452;50.756;4.472;2022-07-23T07:38:42;19.42;;;13.32;;
8831;SDS011;4452;50.756;4.472;2022-07-23T07:41:08;22.27;;;13.63;;
8831;SDS011;4452;50.756;4.472;2022-07-23T07:43:35;27.75;;;14.68;;
8831;SDS011;4452;50.756;4.472;2022-07-23T07:46:03;23.10;;;13.18;;
8831;SDS011;4452;50.756;4.472;2022-07-23T07:48:29;26.27;;;13.68;;
8831;SDS011;4452;50.756;4.472;2022-07-23T07:50:54;20.77;;;13.00;;
8831;SDS011;4452;50.756;4.472;2022-07-23T07:53:20;18.20;;;13.15;;
8831;SDS011;4452;50.756;4.472;2022-07-23T07:55:46;20.05;;;12.15;;
8831;SDS011;4452;50.756;4.472;2022-07-23T07:58:12;19.92;;;12.45;;
8831;SDS011;4452;50.756;4.472;2022-07-23T08:00:37;19.98;;;11.95;;
8831;SDS011;4452;50.756;4.472;2022-07-23T08:03:03;23.23;;;12.68;;
8831;SDS011;4452;50.756;4.472;2022-07-23T08:05:29;18.40;;;12.40;;
8831;SDS011;4452;50.756;4.472;2022-07-23T08:07:56;21.00;;;11.98;;
8831;SDS011;4452;50.756;4.472;2022-07-23T08:10:23;16.75;;;12.02;;
8831;SDS011;4452;50.756;4.472;2022-07-23T08:12:50;17.85;;;11.20;;
8831;SDS011;4452;50.756;4.472;2022-07-23T08:15:19;28.67;;;11.45;;
8831;SDS011;4452;50.756;4.472;2022-07-23T08:17:46;17.45;;;10.57;;
8831;SDS011;4452;50.756;4.472;2022-07-23T08:20:13;17.13;;;10.02;;
8831;SDS011;4452;50.756;4.472;2022-07-23T08:25:15;14.55;;;9.77;;
8831;SDS011;4452;50.756;4.472;2022-07-23T08:27:41;15.63;;;9.15;;
8831;SDS011;4452;50.756;4.472;2022-07-23T08:30:07;15.07;;;10.65;;
8831;SDS011;4452;50.756;4.472;2022-07-23T08:32:45;15.43;;;10.02;;
8831;SDS011;4452;50.756;4.472;2022-07-23T08:35:44;18.48;;;10.25;;
8831;SDS011;4452;50.756;4.472;2022-07-23T08:38:12;14.18;;;9.80;;
8831;SDS011;4452;50.756;4.472;2022-07-23T08:40:43;12.73;;;10.00;;
8831;SDS011;4452;50.756;4.472;2022-07-23T08:43:11;18.65;;;10.70;;
8831;SDS011;4452;50.756;4.472;2022-07-23T08:45:42;18.02;;;9.98;;
8831;SDS011;4452;50.756;4.472;2022-07-23T08:48:13;20.50;;;10.23;;
8831;SDS011;4452;50.756;4.472;2022-07-23T08:50:44;14.55;;;9.88;;
8831;SDS011;4452;50.756;4.472;2022-07-23T08:53:12;15.48;;;9.57;;
8831;SDS011;4452;50.756;4.472;2022-07-23T08:55:38;15.88;;;9.88;;
8831;SDS011;4452;50.756;4.472;2022-07-23T08:58:05;13.80;;;9.98;;
8831;SDS011;4452;50.756;4.472;2022-07-23T09:00:31;11.65;;;9.18;;
8831;SDS011;4452;50.756;4.472;2022-07-23T09:02:57;13.80;;;8.88;;
8831;SDS011;4452;50.756;4.472;2022-07-23T09:05:23;12.13;;;8.63;;
8831;SDS011;4452;50.756;4.472;2022-07-23T09:08:05;11.32;;;8.27;;
8831;SDS011;4452;50.756;4.472;2022-07-23T09:10:42;14.35;;;8.40;;
8831;SDS011;4452;50.756;4.472;2022-07-23T09:13:22;15.40;;;9.00;;
8831;SDS011;4452;50.756;4.472;2022-07-23T09:15:51;12.93;;;8.18;;
8831;SDS011;4452;50.756;4.472;2022-07-23T09:18:18;12.45;;;8.50;;
8831;SDS011;4452;50.756;4.472;2022-07-23T09:20:44;10.30;;;7.82;;
8831;SDS011;4452;50.756;4.472;2022-07-23T09:23:10;15.52;;;8.82;;
8831;SDS011;4452;50.756;4.472;2022-07-23T09:25:36;13.10;;;8.07;;
8831;SDS011;4452;50.756;4.472;2022-07-23T09:28:02;9.88;;;7.38;;
8831;SDS011;4452;50.756;4.472;2022-07-23T09:30:29;19.73;;;7.32;;
8831;SDS011;4452;50.756;4.472;2022-07-23T09:33:09;14.05;;;7.18;;
8831;SDS011;4452;50.756;4.472;2022-07-23T09:35:53;16.33;;;8.32;;
8831;SDS011;4452;50.756;4.472;2022-07-23T09:38:20;10.75;;;7.35;;
8831;SDS011;4452;50.756;4.472;2022-07-23T09:43:58;10.90;;;6.40;;
8831;SDS011;4452;50.756;4.472;2022-07-23T09:46:32;16.40;;;6.82;;
8831;SDS011;4452;50.756;4.472;2022-07-23T09:48:58;8.48;;;6.53;;
8831;SDS011;4452;50.756;4.472;2022-07-23T09:56:56;10.07;;;6.40;;
8831;SDS011;4452;50.756;4.472;2022-07-23T09:59:24;19.35;;;6.95;;
8831;SDS011;4452;50.756;4.472;2022-07-23T10:01:52;9.85;;;6.80;;
8831;SDS011;4452;50.756;4.472;2022-07-23T10:04:24;9.25;;;6.97;;
8831;SDS011;4452;50.756;4.472;2022-07-23T10:06:52;11.70;;;7.10;;
8831;SDS011;4452;50.756;4.472;2022-07-23T10:09:22;13.35;;;6.55;;
8831;SDS011;4452;50.756;4.472;2022-07-23T10:11:54;12.40;;;6.13;;
8831;SDS011;4452;50.756;4.472;2022-07-23T10:14:24;9.20;;;5.25;;
8831;SDS011;4452;50.756;4.472;2022-07-23T10:16:51;4.35;;;3.65;;
8831;SDS011;4452;50.756;4.472;2022-07-23T10:19:17;8.32;;;4.82;;
8831;SDS011;4452;50.756;4.472;2022-07-23T10:21:48;4.63;;;3.88;;
8831;SDS011;4452;50.756;4.472;2022-07-23T10:27:30;9.05;;;4.40;;
8831;SDS011;4452;50.756;4.472;2022-07-23T10:30:04;7.43;;;5.20;;
8831;SDS011;4452;50.756;4.472;2022-07-23T10:32:52;5.70;;;4.13;;
8831;SDS011;4452;50.756;4.472;2022-07-23T10:35:47;5.47;;;4.60;;
8831;SDS011;4452;50.756;4.472;2022-07-23T10:43:21;6.88;;;4.60;;
8831;SDS011;4452;50.756;4.472;2022-07-23T10:45:47;9.45;;;4.50;;
8831;SDS011;4452;50.756;4.472;2022-07-23T10:48:17;5.72;;;4.72;;
8831;SDS011;4452;50.756;4.472;2022-07-23T10:59:22;6.95;;;4.10;;
8831;SDS011;4452;50.756;4.472;2022-07-23T11:01:48;7.05;;;3.70;;
8831;SDS011;4452;50.756;4.472;2022-07-23T11:04:15;6.18;;;3.88;;
8831;SDS011;4452;50.756;4.472;2022-07-23T11:07:26;4.43;;;3.67;;
8831;SDS011;4452;50.756;4.472;2022-07-23T11:09:31;9.88;;;4.25;;
8831;SDS011;4452;50.756;4.472;2022-07-23T11:17:24;4.20;;;3.53;;
8831;SDS011;4452;50.756;4.472;2022-07-23T11:25:13;7.72;;;4.20;;
8831;SDS011;4452;50.756;4.472;2022-07-23T11:27:54;3.92;;;3.53;;
8831;SDS011;4452;50.756;4.472;2022-07-23T11:32:53;7.07;;;3.65;;
8831;SDS011;4452;50.756;4.472;2022-07-23T11:35:23;4.80;;;4.07;;
8831;SDS011;4452;50.756;4.472;2022-07-23T11:37:51;5.78;;;4.10;;
8831;SDS011;4452;50.756;4.472;2022-07-23T11:40:23;7.22;;;4.38;;
8831;SDS011;4452;50.756;4.472;2022-07-23T11:43:03;7.45;;;4.47;;
8831;SDS011;4452;50.756;4.472;2022-07-23T11:45:33;6.43;;;3.90;;
8831;SDS011;4452;50.756;4.472;2022-07-23T11:48:08;4.78;;;3.63;;
8831;SDS011;4452;50.756;4.472;2022-07-23T11:50:35;3.85;;;3.45;;
8831;SDS011;4452;50.756;4.472;2022-07-23T11:53:02;4.70;;;3.90;;
8831;SDS011;4452;50.756;4.472;2022-07-23T11:55:28;6.07;;;3.40;;
8831;SDS011;4452;50.756;4.472;2022-07-23T11:57:54;3.80;;;3.42;;
8831;SDS011;4452;50.756;4.472;2022-07-23T12:00:24;4.13;;;3.72;;
8831;SDS011;4452;50.756;4.472;2022-07-23T12:02:53;5.30;;;3.75;;
8831;SDS011;4452;50.756;4.472;2022-07-23T12:05:31;6.90;;;3.47;;
8831;SDS011;4452;50.756;4.472;2022-07-23T12:08:00;4.30;;;3.95;;
8831;SDS011;4452;50.756;4.472;2022-07-23T12:10:33;8.40;;;4.00;;
8831;SDS011;4452;50.756;4.472;2022-07-23T12:13:11;9.25;;;3.78;;
8831;SDS011;4452;50.756;4.472;2022-07-23T12:15:39;7.20;;;3.50;;
8831;SDS011;4452;50.756;4.472;2022-07-23T12:18:08;5.28;;;3.70;;
8831;SDS011;4452;50.756;4.472;2022-07-23T12:20:37;4.22;;;3.80;;
8831;SDS011;4452;50.756;4.472;2022-07-23T12:23:08;5.68;;;3.78;;
8831;SDS011;4452;50.756;4.472;2022-07-23T12:25:36;5.78;;;3.92;;
8831;SDS011;4452;50.756;4.472;2022-07-23T12:28:14;7.32;;;3.90;;
8831;SDS011;4452;50.756;4.472;2022-07-23T12:30:45;3.47;;;3.17;;
8831;SDS011;4452;50.756;4.472;2022-07-23T12:33:13;5.80;;;3.60;;
8831;SDS011;4452;50.756;4.472;2022-07-23T12:35:49;5.68;;;3.40;;
8831;SDS011;4452;50.756;4.472;2022-07-23T12:38:18;6.72;;;3.53;;
8831;SDS011;4452;50.756;4.472;2022-07-23T12:43:18;5.82;;;3.67;;
8831;SDS011;4452;50.756;4.472;2022-07-23T12:45:48;8.48;;;3.70;;
8831;SDS011;4452;50.756;4.472;2022-07-23T12:48:16;7.18;;;3.90;;
8831;SDS011;4452;50.756;4.472;2022-07-23T12:50:43;7.07;;;3.63;;
8831;SDS011;4452;50.756;4.472;2022-07-23T12:53:15;7.47;;;3.58;;
8831;SDS011;4452;50.756;4.472;2022-07-23T12:55:46;4.28;;;3.40;;
8831;SDS011;4452;50.756;4.472;2022-07-23T12:58:16;5.47;;;3.70;;
8831;SDS011;4452;50.756;4.472;2022-07-23T13:01:00;3.65;;;3.35;;
8831;SDS011;4452;50.756;4.472;2022-07-23T13:03:29;4.10;;;3.33;;
8831;SDS011;4452;50.756;4.472;2022-07-23T13:05:56;6.13;;;3.78;;
8831;SDS011;4452;50.756;4.472;2022-07-23T13:08:23;3.67;;;3.38;;
8831;SDS011;4452;50.756;4.472;2022-07-23T13:10:50;11.57;;;3.72;;
8831;SDS011;4452;50.756;4.472;2022-07-23T13:13:17;5.15;;;3.72;;
8831;SDS011;4452;50.756;4.472;2022-07-23T13:15:46;7.97;;;3.72;;
8831;SDS011;4452;50.756;4.472;2022-07-23T13:18:12;8.75;;;3.90;;
8831;SDS011;4452;50.756;4.472;2022-07-23T13:20:37;4.22;;;3.83;;
8831;SDS011;4452;50.756;4.472;2022-07-23T13:23:07;4.22;;;3.83;;
8831;SDS011;4452;50.756;4.472;2022-07-23T13:25:32;4.10;;;3.75;;
8831;SDS011;4452;50.756;4.472;2022-07-23T13:27:58;5.68;;;3.78;;
8831;SDS011;4452;50.756;4.472;2022-07-23T13:30:24;8.05;;;3.83;;
8831;SDS011;4452;50.756;4.472;2022-07-23T13:32:50;5.00;;;3.85;;
8831;SDS011;4452;50.756;4.472;2022-07-23T13:35:16;5.28;;;3.53;;
8831;SDS011;4452;50.756;4.472;2022-07-23T13:37:41;6.03;;;3.80;;
8831;SDS011;4452;50.756;4.472;2022-07-23T13:40:07;5.53;;;3.67;;
8831;SDS011;4452;50.756;4.472;2022-07-23T13:42:33;4.35;;;3.92;;
8831;SDS011;4452;50.756;4.472;2022-07-23T13:44:59;6.05;;;3.92;;
8831;SDS011;4452;50.756;4.472;2022-07-23T13:47:24;4.72;;;4.28;;
8831;SDS011;4452;50.756;4.472;2022-07-23T13:49:50;4.30;;;3.83;;
8831;SDS011;4452;50.756;4.472;2022-07-23T13:52:16;7.07;;;4.30;;
8831;SDS011;4452;50.756;4.472;2022-07-23T13:54:41;5.25;;;4.10;;
8831;SDS011;4452;50.756;4.472;2022-07-23T13:57:08;5.38;;;3.95;;
8831;SDS011;4452;50.756;4.472;2022-07-23T13:59:34;5.15;;;3.92;;
8831;SDS011;4452;50.756;4.472;2022-07-23T14:02:04;6.85;;;4.30;;
8831;SDS011;4452;50.756;4.472;2022-07-23T14:04:30;4.53;;;4.03;;
8831;SDS011;4452;50.756;4.472;2022-07-23T14:06:57;4.45;;;3.97;;
8831;SDS011;4452;50.756;4.472;2022-07-23T14:09:22;5.13;;;4.05;;
8831;SDS011;4452;50.756;4.472;2022-07-23T14:11:48;4.95;;;4.45;;
8831;SDS011;4452;50.756;4.472;2022-07-23T14:14:15;4.53;;;4.13;;
8831;SDS011;4452;50.756;4.472;2022-07-23T14:16:42;8.60;;;4.20;;
8831;SDS011;4452;50.756;4.472;2022-07-23T14:19:07;5.53;;;3.95;;
8831;SDS011;4452;50.756;4.472;2022-07-23T14:21:33;7.45;;;4.57;;
8831;SDS011;4452;50.756;4.472;2022-07-23T14:23:59;4.68;;;3.88;;
8831;SDS011;4452;50.756;4.472;2022-07-23T14:26:24;4.78;;;4.00;;
8831;SDS011;4452;50.756;4.472;2022-07-23T14:28:50;5.53;;;3.70;;
8831;SDS011;4452;50.756;4.472;2022-07-23T14:31:16;4.20;;;3.80;;
8831;SDS011;4452;50.756;4.472;2022-07-23T14:33:41;5.63;;;3.97;;
8831;SDS011;4452;50.756;4.472;2022-07-23T14:36:07;8.73;;;4.53;;
8831;SDS011;4452;50.756;4.472;2022-07-23T14:38:33;4.72;;;4.28;;
8831;SDS011;4452;50.756;4.472;2022-07-23T14:40:59;6.88;;;4.50;;
8831;SDS011;4452;50.756;4.472;2022-07-23T14:43:24;8.93;;;4.47;;
8831;SDS011;4452;50.756;4.472;2022-07-23T14:45:50;6.95;;;4.00;;
8831;SDS011;4452;50.756;4.472;2022-07-23T14:48:16;5.53;;;4.22;;
8831;SDS011;4452;50.756;4.472;2022-07-23T14:50:42;6.32;;;4.57;;
8831;SDS011;4452;50.756;4.472;2022-07-23T14:53:07;5.70;;;4.40;;
8831;SDS011;4452;50.756;4.472;2022-07-23T14:55:33;5.78;;;4.70;;
8831;SDS011;4452;50.756;4.472;2022-07-23T14:57:59;6.88;;;4.45;;
8831;SDS011;4452;50.756;4.472;2022-07-23T15:00:25;4.70;;;4.13;;
8831;SDS011;4452;50.756;4.472;2022-07-23T15:02:52;6.55;;;4.38;;
8831;SDS011;4452;50.756;4.472;2022-07-23T15:05:18;6.55;;;4.68;;
8831;SDS011;4452;50.756;4.472;2022-07-23T15:07:44;10.15;;;4.38;;
8831;SDS011;4452;50.756;4.472;2022-07-23T15:10:10;4.43;;;4.03;;
8831;SDS011;4452;50.756;4.472;2022-07-23T15:12:36;6.63;;;4.20;;
8831;SDS011;4452;50.756;4.472;2022-07-23T15:15:02;7.35;;;4.72;;
8831;SDS011;4452;50.756;4.472;2022-07-23T15:17:29;12.40;;;4.47;;
8831;SDS011;4452;50.756;4.472;2022-07-23T15:19:54;6.25;;;4.47;;
8831;SDS011;4452;50.756;4.472;2022-07-23T15:22:20;5.43;;;4.60;;
8831;SDS011;4452;50.756;4.472;2022-07-23T15:24:47;8.52;;;4.70;;
8831;SDS011;4452;50.756;4.472;2022-07-23T15:27:12;5.38;;;4.32;;
8831;SDS011;4452;50.756;4.472;2022-07-23T15:29:38;6.75;;;4.55;;
8831;SDS011;4452;50.756;4.472;2022-07-23T15:32:04;4.50;;;4.10;;
8831;SDS011;4452;50.756;4.472;2022-07-23T15:34:30;5.47;;;4.13;;
8831;SDS011;4452;50.756;4.472;2022-07-23T15:36:59;4.80;;;4.30;;
8831;SDS011;4452;50.756;4.472;2022-07-23T15:39:25;4.38;;;3.95;;
8831;SDS011;4452;50.756;4.472;2022-07-23T15:41:51;6.88;;;4.95;;